Time;durP1;ratioP1;P1;durP2;ratioP2;P2;SDS_P1;SDS_P2;PMS_P1;PMS_P2;Temp;Humidity;BMP_temperature;BMP_pressure;BME280_temperature;BME280_humidity;BME280_pressure;Samples;Min_cycle;Max_cycle;Signal;HPM_P1;HPM_P2
2022/09/29 00:01:19;;;;;;;8.10;6.30;;;;;;;8.15;93.88;96327.49;110352;1247;59679;-71
2022/09/29 00:03:49;;;;;;;8.00;6.50;;;;;;;8.13;94.57;96323.23;110353;1247;59655;-71
2022/09/29 00:06:18;;;;;;;8.70;6.90;;;;;;;8.10;94.71;96323.16;110562;1246;71534;-70
2022/09/29 00:08:46;;;;;;;10.70;7.30;;;;;;;8.06;94.72;96323.45;110586;1247;68534;-72
2022/09/29 00:11:18;;;;;;;9.40;7.80;;;;;;;8.04;95.91;96322.64;110715;1246;68652;-70
2022/09/29 00:13:47;;;;;;;8.20;6.40;;;;;;;8.00;97.54;96317.55;110264;1245;59677;-70
2022/09/29 00:16:15;;;;;;;7.50;5.60;;;;;;;7.98;98.20;96315.28;110468;1247;59674;-70
2022/09/29 00:18:45;;;;;;;6.50;4.80;;;;;;;7.95;95.76;96305.47;110546;1247;70677;-72
2022/09/29 00:21:20;;;;;;;7.70;5.70;;;;;;;7.94;95.22;96306.58;110494;1247;68585;-72
2022/09/29 00:23:50;;;;;;;5.70;4.20;;;;;;;7.92;97.85;96305.56;110588;1246;68652;-72
2022/09/29 00:26:23;;;;;;;8.80;5.30;;;;;;;7.86;97.44;96305.84;110624;1245;59719;-73
2022/09/29 00:28:56;;;;;;;8.10;4.90;;;;;;;7.80;98.15;96301.79;110322;1247;59709;-70
2022/09/29 00:31:27;;;;;;;8.30;6.10;;;;;;;7.73;98.36;96299.56;110268;1247;71757;-70
2022/09/29 00:33:58;;;;;;;6.50;4.80;;;;;;;7.67;97.40;96295.73;110262;1247;68639;-69
2022/09/29 00:36:29;;;;;;;5.90;4.40;;;;;;;7.62;97.43;96299.06;110121;1247;69446;-71
2022/09/29 00:38:59;;;;;;;7.10;5.10;;;;;;;7.57;97.38;96298.88;110124;1248;59646;-71
2022/09/29 00:41:34;;;;;;;7.50;4.20;;;;;;;7.54;96.98;96299.66;110259;1247;59662;-68
2022/09/29 00:44:25;;;;;;;5.40;4.00;;;;;;;7.52;96.77;96301.93;110244;1247;70620;-69
2022/09/29 00:47:15;;;;;;;6.40;4.70;;;;;;;7.52;97.37;96300.73;110116;1248;68404;-70
2022/09/29 00:49:43;;;;;;;5.80;4.50;;;;;;;7.50;96.88;96296.56;110217;1246;69374;-69
2022/09/29 00:52:14;;;;;;;7.00;4.90;;;;;;;7.46;97.09;96297.70;110090;1247;59693;-71
2022/09/29 00:54:59;;;;;;;6.30;5.00;;;;;;;7.41;96.91;96295.15;110214;1247;59637;-70
2022/09/29 00:57:35;;;;;;;5.30;4.00;;;;;;;7.37;97.03;96298.02;110209;1247;71941;-69
2022/09/29 01:00:10;;;;;;;7.60;4.40;;;;;;;7.34;97.66;96298.27;110133;1247;69197;-73
2022/09/29 01:02:45;;;;;;;6.00;4.10;;;;;;;7.31;97.44;96296.13;110086;1247;68470;-70
2022/09/29 01:05:31;;;;;;;4.90;3.50;;;;;;;7.31;95.44;96299.44;110223;1248;59668;-69
2022/09/29 01:08:21;;;;;;;6.60;3.80;;;;;;;7.32;95.04;96299.82;110112;1248;59631;-71
2022/09/29 01:10:52;;;;;;;6.50;4.40;;;;;;;7.32;95.39;96304.82;110096;1247;70783;-71
2022/09/29 01:13:21;;;;;;;5.70;3.70;;;;;;;7.31;95.64;96304.05;110086;1247;69485;-71
2022/09/29 01:15:50;;;;;;;5.40;4.40;;;;;;;7.29;96.86;96304.73;110110;1246;69331;-70
2022/09/29 01:18:20;;;;;;;8.00;5.20;;;;;;;7.25;97.16;96304.70;110099;1247;59753;-72
2022/09/29 01:21:17;;;;;;;6.30;4.40;;;;;;;7.19;96.72;96304.33;110148;1248;60123;-70
2022/09/29 01:24:04;;;;;;;6.60;4.80;;;;;;;7.14;98.69;96303.64;110765;1248;70006;-71
2022/09/29 01:27:32;;;;;;;5.00;3.20;;;;;;;7.08;98.70;96304.77;111130;1247;69320;-71
2022/09/29 01:30:45;;;;;;;6.10;4.40;;;;;;;7.07;98.54;96302.61;109907;1251;69356;-71
2022/09/29 01:33:42;;;;;;;5.90;4.30;;;;;;;7.05;99.98;96297.58;110001;1248;59747;-71
2022/09/29 01:36:23;;;;;;;9.10;5.90;;;;;;;7.02;100.00;96293.63;110008;1247;59749;-71
2022/09/29 01:39:16;;;;;;;7.90;5.30;;;;;;;7.00;100.00;96299.16;110282;1247;71575;-71
2022/09/29 01:41:55;;;;;;;5.80;4.20;;;;;;;6.97;100.00;96294.36;110102;1248;69388;-71
2022/09/29 01:44:43;;;;;;;7.60;5.20;;;;;;;6.93;100.00;96294.33;110153;1247;68221;-70
2022/09/29 01:47:19;;;;;;;6.40;4.80;;;;;;;6.92;100.00;96295.65;110047;1246;59736;-71
2022/09/29 01:49:53;;;;;;;5.50;4.40;;;;;;;6.90;100.00;96288.51;110099;1246;59694;-70
2022/09/29 01:52:26;;;;;;;6.40;4.00;;;;;;;6.89;98.15;96286.83;110191;1247;71565;-71
2022/09/29 01:55:05;;;;;;;5.30;4.10;;;;;;;6.91;96.99;96288.57;110168;1247;69423;-70
2022/09/29 01:57:58;;;;;;;6.50;4.10;;;;;;;6.91;97.91;96295.73;110207;1247;68795;-70
2022/09/29 02:00:32;;;;;;;6.90;4.60;;;;;;;6.87;98.44;96295.98;110210;1246;59718;-71
2022/09/29 02:03:10;;;;;;;6.20;4.30;;;;;;;6.82;99.47;96290.64;110337;1246;59666;-71
2022/09/29 02:05:54;;;;;;;10.20;6.60;;;;;;;6.79;99.99;96285.00;110198;1247;71463;-70
2022/09/29 02:08:34;;;;;;;6.00;4.80;;;;;;;6.77;100.00;96282.21;110418;1246;67548;-70
2022/09/29 02:11:10;;;;;;;9.90;6.00;;;;;;;6.75;99.35;96278.88;110408;1247;69340;-72
2022/09/29 02:13:41;;;;;;;7.10;5.30;;;;;;;6.76;98.01;96276.77;110399;1247;59720;-70
2022/09/29 02:16:13;;;;;;;7.60;4.90;;;;;;;6.77;97.27;96274.95;110406;1244;59708;-69
2022/09/29 02:18:53;;;;;;;6.90;5.20;;;;;;;6.79;97.34;96271.87;110417;1247;71507;-69
2022/09/29 02:21:27;;;;;;;6.30;5.30;;;;;;;6.80;97.91;96273.66;110200;1247;69332;-70
2022/09/29 02:23:56;;;;;;;8.40;5.90;;;;;;;6.80;98.32;96280.77;110251;1247;69402;-70
2022/09/29 02:26:32;;;;;;;8.40;5.30;;;;;;;6.78;98.23;96280.25;110534;1247;59733;-71
2022/09/29 02:29:04;;;;;;;8.00;5.40;;;;;;;6.74;99.19;96277.11;110281;1244;59650;-71
2022/09/29 02:31:35;;;;;;;7.30;4.60;;;;;;;6.70;99.10;96278.80;110328;1246;69755;-71
2022/09/29 02:34:10;;;;;;;6.00;4.20;;;;;;;6.66;99.99;96278.02;110569;1247;69450;-72
2022/09/29 02:36:56;;;;;;;8.20;5.50;;;;;;;6.63;100.00;96279.80;110626;1245;69564;-71
2022/09/29 02:39:43;;;;;;;8.80;5.70;;;;;;;6.58;100.00;96272.89;110207;1247;59801;-72
2022/09/29 02:42:24;;;;;;;6.80;4.90;;;;;;;6.52;100.00;96274.35;110287;1247;59655;-71
2022/09/29 02:45:09;;;;;;;8.50;5.30;;;;;;;6.48;100.00;96278.33;110512;1245;70976;-71
2022/09/29 02:48:11;;;;;;;5.70;4.10;;;;;;;6.45;100.00;96284.62;110226;1247;68680;-70
2022/09/29 02:50:58;;;;;;;6.20;4.30;;;;;;;6.42;100.00;96287.39;110342;1247;68561;-70
2022/09/29 02:53:50;;;;;;;7.00;4.80;;;;;;;6.38;100.00;96287.72;110258;1247;59701;-69
2022/09/29 02:56:27;;;;;;;6.70;3.90;;;;;;;6.30;100.00;96287.83;110413;1245;59628;-69
2022/09/29 02:59:07;;;;;;;6.90;4.20;;;;;;;6.24;100.00;96284.02;110286;1245;71539;-70
2022/09/29 03:01:48;;;;;;;6.70;4.60;;;;;;;6.22;100.00;96278.16;110409;1246;69569;-70
2022/09/29 03:04:16;;;;;;;8.00;5.00;;;;;;;6.22;100.00;96275.24;110529;1247;69281;-70
2022/09/29 03:06:45;;;;;;;8.40;5.40;;;;;;;6.21;100.00;96277.86;110288;1246;59753;-70
2022/09/29 03:09:13;;;;;;;5.80;4.90;;;;;;;6.20;100.00;96281.60;110213;1247;59734;-70
2022/09/29 03:11:42;;;;;;;8.90;6.00;;;;;;;6.19;100.00;96285.86;110244;1247;71537;-72
2022/09/29 03:14:10;;;;;;;7.10;5.20;;;;;;;6.17;100.00;96285.11;110173;1246;68476;-72
2022/09/29 03:16:38;;;;;;;7.60;4.40;;;;;;;6.15;100.00;96287.36;110400;1247;69414;-72
2022/09/29 03:19:06;;;;;;;6.60;4.40;;;;;;;6.13;100.00;96284.50;110240;1247;59690;-72
2022/09/29 03:21:34;;;;;;;5.40;4.20;;;;;;;6.11;100.00;96284.98;110382;1245;59742;-72
2022/09/29 03:24:02;;;;;;;5.60;4.00;;;;;;;6.10;100.00;96284.52;110394;1245;70769;-70
2022/09/29 03:26:30;;;;;;;7.40;5.00;;;;;;;6.12;100.00;96281.79;110431;1246;69584;-70
2022/09/29 03:28:59;;;;;;;8.00;4.40;;;;;;;6.12;100.00;96277.48;110210;1246;69326;-71
2022/09/29 03:31:27;;;;;;;7.70;4.60;;;;;;;6.15;100.00;96277.67;110399;1245;59696;-70
2022/09/29 03:33:55;;;;;;;5.80;4.00;;;;;;;6.19;100.00;96277.73;110388;1245;59615;-68
2022/09/29 03:36:22;;;;;;;6.40;4.10;;;;;;;6.24;100.00;96276.84;110374;1247;71015;-71
2022/09/29 03:38:50;;;;;;;6.50;3.70;;;;;;;6.29;99.48;96269.17;110305;1247;69348;-71
2022/09/29 03:41:18;;;;;;;6.00;3.90;;;;;;;6.36;99.05;96268.80;110429;1246;69427;-72
2022/09/29 03:43:46;;;;;;;7.10;4.10;;;;;;;6.47;98.97;96264.56;110254;1247;59754;-72
2022/09/29 03:46:14;;;;;;;7.50;4.60;;;;;;;6.56;99.26;96258.33;110315;1247;59719;-69
2022/09/29 03:48:42;;;;;;;8.00;5.40;;;;;;;6.61;99.58;96256.08;110205;1245;70755;-69
2022/09/29 03:51:10;;;;;;;8.50;5.50;;;;;;;6.63;99.76;96259.34;110238;1245;69949;-69
2022/09/29 03:53:37;;;;;;;7.10;4.70;;;;;;;6.61;99.61;96263.09;110238;1247;68746;-70
2022/09/29 03:56:06;;;;;;;7.10;5.10;;;;;;;6.57;99.88;96260.30;110168;1247;59725;-70
2022/09/29 03:58:35;;;;;;;6.80;5.10;;;;;;;6.56;100.00;96261.07;110290;1245;59687;-72
2022/09/29 04:01:03;;;;;;;6.00;4.00;;;;;;;6.59;100.00;96269.36;110527;1244;70771;-71
2022/09/29 04:03:33;;;;;;;6.60;4.60;;;;;;;6.62;100.00;96268.95;110345;1246;68569;-70
2022/09/29 04:06:01;;;;;;;6.60;4.30;;;;;;;6.66;100.00;96270.04;110373;1245;68764;-69
2022/09/29 04:08:28;;;;;;;5.60;4.20;;;;;;;6.70;100.00;96269.21;110302;1245;59731;-73
2022/09/29 04:10:57;;;;;;;6.60;5.10;;;;;;;6.76;100.00;96266.72;110336;1245;59663;-72
2022/09/29 04:13:25;;;;;;;6.80;4.60;;;;;;;6.81;100.00;96263.52;110245;1247;70932;-71
2022/09/29 04:16:04;;;;;;;6.40;4.30;;;;;;;6.87;100.00;96260.45;110151;1247;69340;-73
2022/09/29 04:18:33;;;;;;;6.70;3.90;;;;;;;6.93;100.00;96258.62;110197;1247;69296;-73
2022/09/29 04:21:06;;;;;;;6.30;4.80;;;;;;;6.97;100.00;96259.90;110167;1247;59725;-72
2022/09/29 04:23:35;;;;;;;7.20;4.40;;;;;;;7.02;100.00;96268.86;110437;1247;59616;-73
2022/09/29 04:26:03;;;;;;;5.70;4.30;;;;;;;7.06;100.00;96266.97;110449;1245;71438;-73
2022/09/29 04:28:32;;;;;;;7.60;4.70;;;;;;;7.10;100.00;96265.27;110370;1245;68669;-73
2022/09/29 04:31:00;;;;;;;6.30;4.80;;;;;;;7.16;100.00;96263.48;110442;1245;68796;-72
2022/09/29 04:33:28;;;;;;;6.90;4.80;;;;;;;7.21;100.00;96262.38;110274;1247;59728;-71
2022/09/29 04:35:58;;;;;;;5.00;3.90;;;;;;;7.28;100.00;96258.24;110413;1245;60088;-71
2022/09/29 04:38:26;;;;;;;6.30;4.60;;;;;;;7.35;100.00;96259.76;110226;1245;71425;-70
2022/09/29 04:40:53;;;;;;;6.70;4.60;;;;;;;7.42;100.00;96253.13;110182;1245;69322;-70
2022/09/29 04:43:21;;;;;;;8.40;4.80;;;;;;;7.50;100.00;96256.17;110312;1245;68653;-73
2022/09/29 04:45:49;;;;;;;7.50;4.50;;;;;;;7.57;100.00;96256.74;110555;1245;59711;-71
2022/09/29 04:48:16;;;;;;;7.40;3.90;;;;;;;7.63;100.00;96259.27;110088;1247;59663;-74
2022/09/29 04:50:44;;;;;;;10.30;5.90;;;;;;;7.64;100.00;96263.99;110124;1247;71364;-71
2022/09/29 04:53:11;;;;;;;8.40;5.00;;;;;;;7.65;100.00;96263.25;110191;1247;69960;-70
2022/09/29 04:55:39;;;;;;;10.30;6.50;;;;;;;7.61;100.00;96268.09;110071;1246;69366;-71
2022/09/29 04:58:07;;;;;;;10.70;6.80;;;;;;;7.56;100.00;96269.73;110205;1247;59647;-71
2022/09/29 05:00:35;;;;;;;9.90;7.90;;;;;;;7.52;100.00;96273.29;110165;1247;59701;-71
2022/09/29 05:03:03;;;;;;;8.50;6.30;;;;;;;7.48;99.99;96280.59;110226;1245;70889;-71
2022/09/29 05:05:30;;;;;;;11.10;7.80;;;;;;;7.40;100.00;96282.89;110166;1245;69407;-73
2022/09/29 05:07:58;;;;;;;9.60;6.70;;;;;;;7.40;100.00;96286.18;110177;1247;69475;-71
2022/09/29 05:10:26;;;;;;;8.50;5.80;;;;;;;7.44;100.00;96285.40;110182;1247;59706;-73
2022/09/29 05:12:53;;;;;;;9.70;5.10;;;;;;;7.49;100.00;96286.22;110354;1244;59688;-71
2022/09/29 05:15:20;;;;;;;7.30;5.70;;;;;;;7.54;100.00;96285.42;110119;1247;71520;-71
2022/09/29 05:17:53;;;;;;;8.50;4.90;;;;;;;7.60;100.00;96284.27;110230;1247;69706;-72
2022/09/29 05:20:20;;;;;;;6.80;4.80;;;;;;;7.69;100.00;96283.61;110100;1247;68890;-71
2022/09/29 05:22:49;;;;;;;5.00;4.20;;;;;;;7.79;100.00;96275.55;110381;1244;59700;-70
2022/09/29 05:25:16;;;;;;;9.50;5.30;;;;;;;7.90;100.00;96274.16;110250;1245;59755;-70
2022/09/29 05:27:44;;;;;;;6.70;4.90;;;;;;;8.01;99.95;96269.80;110243;1245;70613;-71
2022/09/29 05:30:11;;;;;;;7.90;5.20;;;;;;;8.12;100.00;96270.63;110396;1245;68584;-71
2022/09/29 05:32:39;;;;;;;7.00;5.50;;;;;;;8.23;100.00;96269.35;110076;1247;68896;-70
2022/09/29 05:35:07;;;;;;;7.70;5.30;;;;;;;8.36;100.00;96268.98;110126;1246;59717;-70
2022/09/29 05:37:35;;;;;;;21.10;7.10;;;;;;;8.51;100.00;96270.58;109773;1247;481894;-70
2022/09/29 05:40:03;;;;;;;7.90;6.60;;;;;;;8.66;100.00;96276.77;110135;1247;70652;-68
2022/09/29 05:42:31;;;;;;;13.90;6.90;;;;;;;8.84;100.00;96274.95;110212;1247;69348;-68
2022/09/29 05:44:59;;;;;;;11.10;6.50;;;;;;;9.04;99.48;96275.89;110194;1247;68660;-69
2022/09/29 05:47:26;;;;;;;11.60;7.60;;;;;;;9.29;98.39;96283.00;110088;1246;59672;-71
2022/09/29 05:49:53;;;;;;;9.80;7.40;;;;;;;9.47;97.63;96281.04;110438;1247;59691;-69
2022/09/29 05:52:21;;;;;;;12.40;8.20;;;;;;;9.64;96.50;96281.34;110149;1247;71036;-69
2022/09/29 05:54:50;;;;;;;9.40;6.60;;;;;;;9.80;95.40;96282.75;110129;1247;69806;-70
2022/09/29 05:57:18;;;;;;;6.50;5.20;;;;;;;9.99;94.86;96278.95;110137;1247;69316;-70
2022/09/29 05:59:45;;;;;;;10.10;7.40;;;;;;;10.20;94.64;96278.48;110148;1247;59748;-72
2022/09/29 06:02:12;;;;;;;16.70;10.20;;;;;;;10.37;93.27;96278.06;110201;1247;59732;-72
2022/09/29 06:04:40;;;;;;;10.60;8.30;;;;;;;10.52;92.97;96275.99;110238;1247;70723;-72
2022/09/29 06:07:07;;;;;;;17.10;11.50;;;;;;;10.68;92.13;96274.20;110208;1246;69329;-73
2022/09/29 06:09:37;;;;;;;20.10;12.40;;;;;;;10.79;90.58;96274.92;110186;1247;68115;-74
2022/09/29 06:12:04;;;;;;;;;;;;;;;10.93;90.33;96280.29;110236;1247;59713;-73
2022/09/29 06:14:32;;;;;;;15.60;11.30;;;;;;;11.02;89.05;96279.50;110436;1245;59609;-79
2022/09/29 06:16:59;;;;;;;22.10;12.10;;;;;;;11.10;89.10;96276.09;110470;1245;70924;-72
2022/09/29 06:19:27;;;;;;;11.70;9.20;;;;;;;11.21;89.23;96277.11;110339;1245;68705;-75
2022/09/29 06:21:54;;;;;;;13.20;10.00;;;;;;;11.30;88.93;96276.83;110285;1247;69288;-72
2022/09/29 06:24:22;;;;;;;12.40;8.20;;;;;;;11.37;88.71;96280.35;110078;1247;59689;-73
2022/09/29 06:26:50;;;;;;;9.30;7.10;;;;;;;11.43;88.04;96275.56;110163;1247;59751;-73
2022/09/29 06:29:18;;;;;;;13.20;9.10;;;;;;;11.56;87.66;96274.77;110151;1247;70880;-73
2022/09/29 06:31:46;;;;;;;11.00;8.80;;;;;;;11.70;87.42;96275.09;110103;1246;69144;-72
2022/09/29 06:34:15;;;;;;;11.10;7.10;;;;;;;11.87;87.74;96279.11;110209;1247;67702;-75
2022/09/29 06:39:30;;;;;;;9.20;6.20;;;;;;;12.27;87.76;96275.65;110290;1245;59666;-73
2022/09/29 06:41:57;;;;;;;8.30;5.70;;;;;;;12.44;86.95;96275.38;110395;1245;70859;-74
2022/09/29 06:44:29;;;;;;;7.40;6.20;;;;;;;12.63;85.91;96276.90;110266;1245;69259;-74
2022/09/29 06:46:57;;;;;;;11.50;7.40;;;;;;;12.81;85.06;96274.64;110249;1245;69314;-74
2022/09/29 06:49:25;;;;;;;8.80;6.50;;;;;;;12.99;84.78;96273.16;110087;1247;59682;-71
2022/09/29 06:51:53;;;;;;;10.10;5.90;;;;;;;13.25;83.82;96271.98;110137;1245;59694;-72
2022/09/29 06:54:25;;;;;;;7.80;5.70;;;;;;;13.49;83.33;96269.39;110505;1244;71845;-76
2022/09/29 06:56:54;;;;;;;7.00;6.20;;;;;;;13.70;82.91;96265.99;110545;1245;68567;-74
2022/09/29 06:59:22;;;;;;;7.70;5.70;;;;;;;13.95;82.40;96265.45;110577;1245;68642;-76
2022/09/29 07:01:49;;;;;;;9.60;6.00;;;;;;;14.23;80.70;96261.48;110545;1244;59704;-75
2022/09/29 07:04:20;;;;;;;7.70;6.00;;;;;;;14.48;79.09;96265.30;110386;1245;59619;-76
2022/09/29 07:06:48;;;;;;;11.30;7.90;;;;;;;14.75;80.13;96271.91;110223;1245;72062;-75
2022/09/29 07:09:17;;;;;;;9.30;7.50;;;;;;;14.97;78.85;96273.95;110345;1245;69377;-75
2022/09/29 07:11:48;;;;;;;11.20;6.80;;;;;;;15.31;76.30;96275.80;110255;1245;68963;-78
2022/09/29 07:14:18;;;;;;;7.90;5.90;;;;;;;15.74;75.03;96276.73;110254;1247;59741;-75
2022/09/29 07:16:47;;;;;;;9.40;6.30;;;;;;;16.20;73.92;96280.27;110339;1247;59614;-77
2022/09/29 07:19:16;;;;;;;7.30;5.60;;;;;;;16.65;73.18;96280.14;110463;1245;70632;-76
2022/09/29 07:21:45;;;;;;;6.20;5.30;;;;;;;17.12;72.90;96287.27;110453;1245;69250;-76
2022/09/29 07:24:12;;;;;;;7.00;4.70;;;;;;;17.72;67.95;96287.23;110303;1245;69415;-71
2022/09/29 07:26:40;;;;;;;8.00;5.80;;;;;;;18.39;66.80;96283.02;110339;1244;60135;-73
2022/09/29 07:29:09;;;;;;;10.70;6.70;;;;;;;19.09;66.74;96288.90;110093;1247;59693;-77
2022/09/29 07:31:44;;;;;;;8.20;5.30;;;;;;;19.56;61.20;96293.85;110210;1247;70762;-73
2022/09/29 07:34:20;;;;;;;12.20;7.80;;;;;;;20.09;59.94;96292.30;110117;1247;68519;-72
2022/09/29 07:36:48;;;;;;;15.80;9.90;;;;;;;20.33;57.47;96287.19;110228;1247;68541;-74
2022/09/29 07:39:18;;;;;;;12.60;8.20;;;;;;;20.62;58.08;96283.62;110159;1247;59681;-73
2022/09/29 07:41:46;;;;;;;8.90;6.70;;;;;;;21.20;58.50;96287.91;110218;1246;59681;-73
2022/09/29 07:44:14;;;;;;;7.20;5.40;;;;;;;21.69;56.72;96283.83;110222;1247;70958;-73
2022/09/29 07:46:41;;;;;;;6.90;3.80;;;;;;;22.07;53.78;96279.36;110219;1246;69451;-73
2022/09/29 07:49:09;;;;;;;6.60;3.40;;;;;;;22.53;51.12;96284.98;110077;1247;69253;-73
2022/09/29 07:51:36;;;;;;;3.10;2.70;;;;;;;22.98;51.44;96284.16;110175;1247;59735;-73
2022/09/29 07:54:04;;;;;;;5.60;3.70;;;;;;;23.42;49.01;96288.59;110190;1246;59767;-75
2022/09/29 07:56:32;;;;;;;3.90;3.30;;;;;;;23.70;49.02;96287.70;110576;1244;71517;-74
2022/09/29 07:59:01;;;;;;;4.40;2.60;;;;;;;23.65;47.80;96291.55;110502;1245;69398;-73
2022/09/29 08:01:29;;;;;;;3.20;2.40;;;;;;;24.08;48.75;96292.98;110703;1245;68563;-72
2022/09/29 08:03:57;;;;;;;3.60;2.30;;;;;;;24.42;48.39;96294.59;110524;1245;59668;-74
2022/09/29 08:06:26;;;;;;;3.30;2.90;;;;;;;24.33;45.57;96293.80;110560;1245;59703;-75
2022/09/29 08:08:54;;;;;;;4.00;2.80;;;;;;;24.68;47.58;96296.35;110328;1244;71536;-76
2022/09/29 08:11:33;;;;;;;3.60;2.70;;;;;;;24.63;43.82;96295.63;110154;1245;69363;-75
2022/09/29 08:14:00;;;;;;;;;;;;;;;24.72;44.47;96291.47;110277;1245;69289;-75
2022/09/29 08:16:28;;;;;;;2.70;2.00;;;;;;;24.95;44.00;96291.05;110434;1245;59744;-74
2022/09/29 08:18:56;;;;;;;2.30;1.90;;;;;;;25.03;43.19;96295.73;110357;1245;59668;-74
2022/09/29 08:21:24;;;;;;;3.30;2.10;;;;;;;24.97;42.44;96301.22;110277;1245;71491;-75
2022/09/29 08:23:52;;;;;;;2.60;2.00;;;;;;;24.82;43.12;96299.88;110347;1245;70659;-75
2022/09/29 08:26:21;;;;;;;3.00;2.00;;;;;;;24.94;42.21;96299.95;110086;1245;69026;-73
2022/09/29 08:29:08;;;;;;;2.80;2.00;;;;;;;25.05;42.66;96304.14;110351;1245;59770;-73
2022/09/29 08:31:38;;;;;;;4.50;2.10;;;;;;;25.36;42.41;96307.48;110331;1244;59733;-73
2022/09/29 08:34:06;;;;;;;4.00;2.30;;;;;;;25.38;42.17;96306.51;110327;1244;71545;-72
2022/09/29 08:36:35;;;;;;;3.70;2.00;;;;;;;25.75;42.39;96305.51;110277;1245;69286;-71
2022/09/29 08:39:03;;;;;;;2.90;2.00;;;;;;;25.80;41.25;96308.23;110245;1245;70176;-74
2022/09/29 08:41:40;;;;;;;2.90;2.30;;;;;;;25.90;40.96;96306.60;110367;1245;59726;-76
2022/09/29 08:44:28;;;;;;;2.50;2.10;;;;;;;25.94;41.29;96302.73;110451;1245;59680;-75
2022/09/29 08:47:41;;;;;;;5.00;2.60;;;;;;;25.94;40.90;96307.14;110108;1247;70802;-74
2022/09/29 08:50:34;;;;;;;3.30;2.20;;;;;;;26.00;40.67;96306.42;109860;1247;69293;-74
2022/09/29 08:53:08;;;;;;;3.10;2.30;;;;;;;26.01;40.31;96304.58;110066;1247;69457;-74
2022/09/29 08:56:01;;;;;;;3.20;2.30;;;;;;;26.41;39.32;96301.59;110145;1245;59758;-75
2022/09/29 08:58:29;;;;;;;3.70;2.20;;;;;;;26.98;39.08;96304.60;110450;1245;59628;-77
2022/09/29 09:01:27;;;;;;;3.10;2.40;;;;;;;27.10;37.78;96314.02;110399;1242;72121;-75
2022/09/29 09:04:30;;;;;;;2.30;1.80;;;;;;;26.97;38.37;96306.86;110604;1245;70144;-77
2022/09/29 09:07:44;;;;;;;2.40;1.90;;;;;;;26.52;38.42;96306.69;110247;1244;69406;-77
2022/09/29 09:10:30;;;;;;;2.50;2.00;;;;;;;25.85;39.31;96309.41;110439;1245;59748;-76
2022/09/29 09:13:16;;;;;;;3.40;1.80;;;;;;;25.42;40.70;96306.20;110513;1244;59742;-76
2022/09/29 09:15:57;;;;;;;5.10;2.30;;;;;;;25.22;41.26;96305.83;111532;1244;71400;-77
2022/09/29 09:18:46;;;;;;;2.80;1.90;;;;;;;25.36;40.86;96305.84;111909;1245;69425;-74
2022/09/29 09:21:18;;;;;;;2.50;1.70;;;;;;;25.48;41.18;96303.42;111051;1242;69087;-75
2022/09/29 09:23:56;;;;;;;2.50;1.70;;;;;;;25.73;40.65;96299.39;110457;1245;59683;-75
2022/09/29 09:26:37;;;;;;;2.40;1.70;;;;;;;26.30;40.92;96301.73;110222;1246;59748;-76
2022/09/29 09:29:24;;;;;;;3.30;1.80;;;;;;;26.91;39.52;96299.14;110212;1245;70668;-77
2022/09/29 09:32:00;;;;;;;2.00;1.80;;;;;;;27.16;38.02;96292.90;110255;1247;69635;-76
2022/09/29 09:34:58;;;;;;;3.70;2.10;;;;;;;27.31;38.85;96288.38;110242;1246;69433;-75
2022/09/29 09:37:43;;;;;;;3.60;2.10;;;;;;;27.71;37.06;96292.77;110222;1247;59726;-75
2022/09/29 09:40:19;;;;;;;3.30;1.90;;;;;;;27.93;36.45;96287.55;110274;1247;59681;-74
2022/09/29 09:43:12;;;;;;;3.30;2.10;;;;;;;28.06;35.51;96286.76;110306;1245;72128;-74
2022/09/29 09:45:58;;;;;;;2.70;2.20;;;;;;;28.36;35.42;96288.27;110435;1245;69778;-75
2022/09/29 09:48:33;;;;;;;4.20;2.10;;;;;;;27.84;35.30;96295.42;110367;1245;69296;-76
2022/09/29 09:51:12;;;;;;;3.90;2.20;;;;;;;27.60;35.73;96294.64;110300;1245;59738;-74
2022/09/29 09:53:43;;;;;;;4.60;2.50;;;;;;;27.59;35.52;96289.48;110242;1246;59732;-74
2022/09/29 09:56:54;;;;;;;3.10;2.00;;;;;;;27.55;35.69;96290.02;110249;1247;71445;-75
2022/09/29 09:59:22;;;;;;;3.20;2.20;;;;;;;27.56;36.43;96290.12;110237;1246;69902;-76
2022/09/29 10:01:49;;;;;;;5.00;2.00;;;;;;;27.93;35.88;96291.38;110216;1246;68800;-75
2022/09/29 10:04:16;;;;;;;2.90;2.10;;;;;;;28.14;35.02;96289.48;110231;1246;59669;-74
2022/09/29 10:06:43;;;;;;;3.40;2.00;;;;;;;28.13;35.24;96286.85;110298;1247;59608;-76
2022/09/29 10:09:15;;;;;;;3.10;2.00;;;;;;;27.91;36.46;96290.23;110511;1246;70857;-75
2022/09/29 10:11:43;;;;;;;4.00;2.20;;;;;;;27.73;35.52;96288.09;110468;1247;69369;-75
2022/09/29 10:14:21;;;;;;;2.80;2.00;;;;;;;27.22;34.87;96278.39;110223;1247;68644;-75
2022/09/29 10:16:55;;;;;;;3.20;2.10;;;;;;;26.91;35.72;96281.29;110205;1247;59697;-75
2022/09/29 10:19:52;;;;;;;8.40;3.00;;;;;;;26.78;36.30;96282.35;110246;1245;59662;-75
2022/09/29 10:22:20;;;;;;;3.80;2.10;;;;;;;26.37;35.92;96280.36;110209;1247;70464;-75
2022/09/29 10:25:12;;;;;;;3.30;2.50;;;;;;;26.22;36.79;96286.95;110360;1245;69195;-74
2022/09/29 10:27:43;;;;;;;2.70;1.90;;;;;;;25.85;37.71;96286.51;110303;1245;67957;-75
2022/09/29 10:30:23;;;;;;;2.70;2.30;;;;;;;25.95;37.77;96288.11;110416;1243;59723;-73
2022/09/29 10:32:58;;;;;;;3.70;2.20;;;;;;;25.72;37.90;96286.04;110297;1245;59684;-73
2022/09/29 10:35:32;;;;;;;4.20;2.80;;;;;;;25.22;38.55;96285.12;110223;1247;72228;-76
2022/09/29 10:38:16;;;;;;;3.70;2.30;;;;;;;24.70;40.36;96287.74;110194;1247;69924;-75
2022/09/29 10:41:03;;;;;;;3.60;2.50;;;;;;;24.20;41.14;96291.72;110202;1247;70133;-74
2022/09/29 10:43:33;;;;;;;3.70;2.40;;;;;;;23.70;41.45;96289.61;110254;1247;59704;-72
2022/09/29 10:46:01;;;;;;;3.30;2.50;;;;;;;23.60;43.23;96287.13;110285;1247;59680;-74
2022/09/29 10:48:29;;;;;;;3.70;2.40;;;;;;;23.57;42.06;96283.70;110211;1247;71423;-73
2022/09/29 10:51:04;;;;;;;4.20;1.80;;;;;;;23.28;42.27;96280.97;110232;1247;68568;-74
2022/09/29 10:53:37;;;;;;;4.60;2.10;;;;;;;23.11;43.06;96283.20;110245;1246;70339;-76
2022/09/29 10:56:30;;;;;;;5.80;2.10;;;;;;;23.19;43.12;96284.61;110208;1246;59635;-75
2022/09/29 10:59:00;;;;;;;3.90;2.50;;;;;;;23.18;42.76;96283.93;110203;1245;59723;-74
2022/09/29 11:01:49;;;;;;;4.80;2.40;;;;;;;23.08;43.16;96284.55;110207;1247;71475;-75
2022/09/29 11:04:18;;;;;;;4.40;1.90;;;;;;;22.92;43.75;96287.29;110244;1247;69382;-75
2022/09/29 11:06:46;;;;;;;4.10;2.40;;;;;;;22.80;44.13;96287.48;110221;1247;68703;-76
2022/09/29 11:09:16;;;;;;;3.00;1.80;;;;;;;22.66;44.90;96284.33;110199;1247;59761;-75
2022/09/29 11:11:47;;;;;;;3.90;2.70;;;;;;;22.63;44.73;96289.42;110246;1247;59669;-75
2022/09/29 11:14:42;;;;;;;4.90;2.70;;;;;;;22.45;46.21;96293.05;110395;1247;71438;-74
2022/09/29 11:17:40;;;;;;;4.30;2.60;;;;;;;22.29;47.36;96294.20;110273;1247;68669;-76
2022/09/29 11:20:17;;;;;;;6.20;2.70;;;;;;;22.16;47.97;96288.20;110235;1247;69756;-73
2022/09/29 11:22:53;;;;;;;4.20;2.40;;;;;;;22.08;47.32;96289.06;110245;1247;59624;-74
2022/09/29 11:25:56;;;;;;;4.60;2.80;;;;;;;21.97;48.38;96290.65;110246;1245;59619;-75
2022/09/29 11:29:02;;;;;;;5.20;2.60;;;;;;;21.90;48.33;96287.81;110310;1247;71436;-75
2022/09/29 11:31:47;;;;;;;4.30;2.60;;;;;;;21.81;48.94;96290.24;110177;1245;69346;-76
2022/09/29 11:34:54;;;;;;;3.10;2.00;;;;;;;21.79;48.53;96288.73;110360;1245;69556;-76
2022/09/29 11:37:58;;;;;;;4.90;2.10;;;;;;;21.80;48.01;96291.68;110369;1245;59734;-75
2022/09/29 11:40:50;;;;;;;3.90;2.40;;;;;;;21.83;47.72;96289.14;110297;1245;59773;-75
2022/09/29 11:43:37;;;;;;;4.60;2.50;;;;;;;21.86;53.55;96296.55;110310;1245;71395;-76
2022/09/29 11:46:32;;;;;;;4.40;2.80;;;;;;;21.78;59.52;96294.92;110350;1245;68743;-76
2022/09/29 11:49:28;;;;;;;4.50;2.60;;;;;;;21.70;62.90;96300.30;110265;1247;69020;-75
2022/09/29 11:52:33;;;;;;;4.20;2.60;;;;;;;21.57;65.80;96304.30;110252;1247;59679;-75
2022/09/29 11:55:44;;;;;;;5.90;2.90;;;;;;;21.43;66.87;96303.09;110299;1247;59678;-76
2022/09/29 11:58:45;;;;;;;4.30;2.40;;;;;;;21.26;69.44;96299.56;110257;1246;71517;-75
2022/09/29 12:01:38;;;;;;;5.00;2.70;;;;;;;21.02;68.27;96300.83;110252;1247;69893;-74
2022/09/29 12:04:33;;;;;;;3.30;2.30;;;;;;;20.62;68.95;96306.94;110289;1245;68316;-74
2022/09/29 12:07:19;;;;;;;3.20;1.80;;;;;;;20.38;68.47;96306.33;110355;1245;59684;-75